createdAt,value
2019-03-13T00:03:59.023Z,1.50
2019-03-13T00:08:01.741Z,1.90
2019-03-13T00:12:04.623Z,1.60
2019-03-13T00:16:06.625Z,1.57
2019-03-13T00:20:11.006Z,1.80
2019-03-13T00:24:13.032Z,1.60
2019-03-13T00:28:14.919Z,1.70
2019-03-13T00:32:16.881Z,1.30
2019-03-13T00:36:18.863Z,1.20
2019-03-13T00:40:20.856Z,7.40
2019-03-13T00:44:22.852Z,1.70
2019-03-13T00:48:24.775Z,2.33
2019-03-13T00:52:26.741Z,1.90
2019-03-13T00:56:28.660Z,1.77
2019-03-13T01:00:48.292Z,1.40
2019-03-13T01:04:51.840Z,1.35
2019-03-13T01:08:53.753Z,1.50
2019-03-13T01:12:55.631Z,1.20
2019-03-13T01:16:57.537Z,1.27
2019-03-13T01:20:59.515Z,1.30
2019-03-13T01:25:01.653Z,1.10
2019-03-13T01:29:03.559Z,0.97
2019-03-13T01:33:07.087Z,1.20
2019-03-13T01:37:08.997Z,0.70
2019-03-13T01:41:10.883Z,1.27
2019-03-13T01:45:13.120Z,1.07
2019-03-13T01:49:15.031Z,1.07
2019-03-13T01:53:16.931Z,1.20
2019-03-13T01:57:18.841Z,1.40
2019-03-13T02:01:20.746Z,1.50
2019-03-13T02:05:22.649Z,1.20
2019-03-13T02:09:24.555Z,1.50
2019-03-13T02:13:26.448Z,1.60
2019-03-13T02:17:28.359Z,1.37
2019-03-13T02:21:30.258Z,1.20
2019-03-13T02:25:32.860Z,1.40
2019-03-13T02:29:34.772Z,1.23
2019-03-13T02:33:36.692Z,1.60
2019-03-13T02:37:38.603Z,1.32
2019-03-13T02:41:40.473Z,1.50
2019-03-13T02:45:42.377Z,1.50
2019-03-13T02:49:44.280Z,1.40
2019-03-13T02:53:46.181Z,1.35
2019-03-13T02:57:48.089Z,0.90
2019-03-13T03:01:51.785Z,0.93
2019-03-13T03:05:53.686Z,0.90
2019-03-13T03:09:55.599Z,0.80
2019-03-13T03:13:57.541Z,0.50
2019-03-13T03:17:59.438Z,0.60
2019-03-13T03:22:01.772Z,0.80
2019-03-13T03:26:03.669Z,0.60
2019-03-13T03:30:09.822Z,0.67
2019-03-13T03:34:11.816Z,0.90
2019-03-13T03:38:13.812Z,1.05
2019-03-13T03:42:16.140Z,0.90
2019-03-13T03:46:18.081Z,1.20
2019-03-13T03:50:20.194Z,0.90
2019-03-13T03:54:22.103Z,1.20
2019-03-13T03:58:24.015Z,1.12
2019-03-13T04:02:25.933Z,1.20
2019-03-13T04:06:28.012Z,1.10
2019-03-13T04:10:31.001Z,1.10
2019-03-13T04:14:32.940Z,1.20
2019-03-13T04:18:34.838Z,1.10
2019-03-13T04:22:36.814Z,1.00
2019-03-13T04:26:38.764Z,0.93
2019-03-13T04:30:40.728Z,0.90
2019-03-13T04:34:42.637Z,0.90
2019-03-13T04:38:44.549Z,0.85
2019-03-13T04:42:46.453Z,0.95
2019-03-13T04:46:48.352Z,1.10
2019-03-13T04:50:50.254Z,0.80
2019-03-13T04:54:52.154Z,0.90
2019-03-13T04:58:54.042Z,1.07
2019-03-13T05:02:55.952Z,0.95
2019-03-13T05:06:57.850Z,0.90
2019-03-13T05:10:59.762Z,1.10
2019-03-13T05:15:01.673Z,0.80
2019-03-13T05:19:03.721Z,0.83
2019-03-13T05:23:05.625Z,0.80
2019-03-13T05:27:07.589Z,0.60
2019-03-13T05:31:28.083Z,0.60
2019-03-13T05:35:37.272Z,0.63
2019-03-13T05:39:39.176Z,0.50
2019-03-13T05:43:41.070Z,0.90
2019-03-13T05:47:43.043Z,0.70
2019-03-13T05:51:45.009Z,0.90
2019-03-13T05:55:47.086Z,0.73
2019-03-13T05:59:48.992Z,0.80
2019-03-13T06:03:50.911Z,0.80
2019-03-13T06:07:52.822Z,1.10
2019-03-13T06:11:54.721Z,1.20
2019-03-13T06:15:56.647Z,1.37
2019-03-13T06:20:00.461Z,1.30
2019-03-13T06:24:02.411Z,1.33
2019-03-13T06:28:04.310Z,1.50
2019-03-13T06:32:06.209Z,1.40
2019-03-13T06:36:08.108Z,1.50
2019-03-13T06:40:16.301Z,1.80
2019-03-13T06:44:18.234Z,1.63
2019-03-13T06:48:20.310Z,1.60
2019-03-13T06:52:22.215Z,1.73
2019-03-13T06:56:24.161Z,1.33
2019-03-13T07:00:28.821Z,1.62
2019-03-13T07:04:48.537Z,1.20
2019-03-13T07:08:54.530Z,1.30
2019-03-13T07:13:04.242Z,1.10
2019-03-13T07:17:07.791Z,1.10
2019-03-13T07:21:27.457Z,1.30
2019-03-13T07:25:29.170Z,1.53
2019-03-13T07:29:35.635Z,1.10
2019-03-13T07:33:55.146Z,0.98
2019-03-13T07:37:58.678Z,1.40
2019-03-13T07:42:07.618Z,1.50
2019-03-13T07:46:16.802Z,1.40
2019-03-13T07:50:20.320Z,1.37
2019-03-13T07:54:26.895Z,1.30
2019-03-13T07:58:39.513Z,1.77
2019-03-13T08:02:58.931Z,1.20
2019-03-13T08:07:17.598Z,1.03
2019-03-13T08:11:30.241Z,1.40
2019-03-13T08:15:41.607Z,1.02
2019-03-13T08:19:43.336Z,1.32
2019-03-13T08:23:45.003Z,0.87
2019-03-13T08:27:54.327Z,1.00
2019-03-13T08:32:09.385Z,1.10
2019-03-13T08:36:15.845Z,1.00
2019-03-13T08:40:35.558Z,1.00
2019-03-13T08:44:45.122Z,0.90
2019-03-13T08:48:57.403Z,0.78
2019-03-13T08:53:02.118Z,1.00
2019-03-13T08:57:06.398Z,0.70
2019-03-13T09:01:26.253Z,0.90
2019-03-13T09:05:45.989Z,0.90
2019-03-13T09:09:52.465Z,0.90
2019-03-13T09:13:56.080Z,0.93
2019-03-13T09:18:08.882Z,0.60
2019-03-13T09:22:18.510Z,1.13
2019-03-13T09:26:22.021Z,1.13
2019-03-13T09:30:35.724Z,0.50
2019-03-13T09:34:51.490Z,0.82
2019-03-13T09:38:55.041Z,0.50
2019-03-13T09:43:01.690Z,0.70
2019-03-13T09:47:14.249Z,0.70
2019-03-13T09:51:18.036Z,0.70
2019-03-13T09:55:37.204Z,1.10
2019-03-13T09:59:55.891Z,0.67
2019-03-13T10:04:11.649Z,0.80
2019-03-13T10:08:28.640Z,0.90
2019-03-13T10:12:34.824Z,0.60
2019-03-13T10:16:41.092Z,0.60
2019-03-13T10:20:53.676Z,0.50
2019-03-13T10:24:57.211Z,0.77
2019-03-13T10:29:12.817Z,0.73
2019-03-13T10:33:32.660Z,0.60
2019-03-13T10:37:45.161Z,0.60
2019-03-13T10:42:03.576Z,0.90
2019-03-13T10:46:19.398Z,0.70
2019-03-13T10:50:39.249Z,0.80
2019-03-13T10:54:48.711Z,0.60
2019-03-13T10:59:10.279Z,0.70
2019-03-13T11:03:19.714Z,0.60
2019-03-13T11:07:40.163Z,0.60
2019-03-13T11:11:43.726Z,0.70
2019-03-13T11:15:50.296Z,0.60
2019-03-13T11:19:57.744Z,0.50
2019-03-13T11:24:13.400Z,0.70
2019-03-13T11:28:29.523Z,0.70
2019-03-13T11:32:42.085Z,0.57
2019-03-13T11:37:02.207Z,0.80
2019-03-13T11:41:05.750Z,0.53
2019-03-13T11:45:28.502Z,0.70
2019-03-13T11:49:48.187Z,0.90
2019-03-13T11:53:54.739Z,0.80
2019-03-13T11:57:56.402Z,0.60
2019-03-13T12:02:16.075Z,0.67
2019-03-13T12:06:19.604Z,0.63
2019-03-13T12:10:25.975Z,0.67
2019-03-13T12:14:35.294Z,1.13
2019-03-13T12:18:44.814Z,0.60
2019-03-13T12:22:54.208Z,0.68
2019-03-13T12:27:05.573Z,0.80
2019-03-13T12:31:09.618Z,0.60
2019-03-13T12:35:25.301Z,0.70
2019-03-13T12:39:37.593Z,0.60
2019-03-13T12:43:44.279Z,1.02
2019-03-13T12:47:53.673Z,0.70
2019-03-13T12:51:57.215Z,0.90
2019-03-13T12:56:09.790Z,0.90
2019-03-13T13:00:21.904Z,0.90
2019-03-13T13:04:25.441Z,0.77
2019-03-13T13:08:28.998Z,0.63
2019-03-13T13:12:35.453Z,0.80
2019-03-13T13:16:48.804Z,1.07
2019-03-13T13:20:50.713Z,0.97
2019-03-13T13:24:52.598Z,1.13
2019-03-13T13:28:54.493Z,1.23
2019-03-13T13:32:56.488Z,0.97
2019-03-13T13:36:58.388Z,0.60
2019-03-13T13:41:00.294Z,0.90
2019-03-13T13:45:02.450Z,0.80
2019-03-13T13:49:05.495Z,0.77
2019-03-13T13:53:07.392Z,0.70
2019-03-13T13:57:09.311Z,0.70
2019-03-13T14:01:11.191Z,0.83
2019-03-13T14:05:13.165Z,1.40
2019-03-13T14:09:15.068Z,0.77
2019-03-13T14:13:16.983Z,1.10
2019-03-13T14:17:18.985Z,0.80
2019-03-13T14:21:20.927Z,0.60
2019-03-13T14:25:23.812Z,0.70
2019-03-13T14:29:25.712Z,0.70
2019-03-13T14:33:27.613Z,0.80
2019-03-13T14:37:29.563Z,0.80
2019-03-13T14:41:31.450Z,0.70
2019-03-13T14:45:33.355Z,1.00
2019-03-13T14:49:35.256Z,0.70
2019-03-13T14:53:37.153Z,0.87
2019-03-13T14:57:39.080Z,0.78
2019-03-13T15:01:40.976Z,0.90
2019-03-13T15:05:42.989Z,1.00
2019-03-13T15:09:44.892Z,0.75
2019-03-13T15:13:46.790Z,0.90
2019-03-13T15:17:48.903Z,0.90
2019-03-13T15:21:50.780Z,1.10
2019-03-13T15:25:52.923Z,1.27
2019-03-13T15:29:54.963Z,0.63
2019-03-13T15:33:56.868Z,1.20
2019-03-13T15:37:58.783Z,1.00
2019-03-13T15:42:00.680Z,0.90
2019-03-13T15:46:02.594Z,1.37
2019-03-13T15:50:06.847Z,1.07
2019-03-13T15:54:08.762Z,1.70
2019-03-13T15:58:10.686Z,1.07
2019-03-13T16:02:12.636Z,1.03
2019-03-13T16:06:14.539Z,0.93
2019-03-13T16:10:18.241Z,1.10
2019-03-13T16:14:20.147Z,0.77
2019-03-13T16:18:22.082Z,0.90
2019-03-13T16:22:23.973Z,0.77
2019-03-13T16:26:25.900Z,1.23
2019-03-13T16:30:30.862Z,0.87
2019-03-13T16:34:33.520Z,0.95
2019-03-13T16:38:35.461Z,1.20
2019-03-13T16:42:37.347Z,1.07
2019-03-13T16:46:39.249Z,1.30
2019-03-13T16:50:41.295Z,1.12
2019-03-13T16:54:43.214Z,1.37
2019-03-13T16:58:45.112Z,1.10
2019-03-13T17:02:46.996Z,2.55
2019-03-13T17:06:48.897Z,1.00
2019-03-13T17:10:50.798Z,4.20
2019-03-13T17:14:52.875Z,1.30
2019-03-13T17:18:54.855Z,2.03
2019-03-13T17:22:56.758Z,1.30
2019-03-13T17:26:58.647Z,1.20
2019-03-13T17:31:00.547Z,1.10
2019-03-13T17:35:02.443Z,1.27
2019-03-13T17:39:06.739Z,1.03
2019-03-13T17:43:10.222Z,1.07
2019-03-13T17:47:12.131Z,1.13
2019-03-13T17:51:14.041Z,1.00
2019-03-13T17:55:20.575Z,1.07
2019-03-13T17:59:22.476Z,1.20
2019-03-13T18:03:25.504Z,1.17
2019-03-13T18:07:27.407Z,0.90
2019-03-13T18:11:29.309Z,1.07
2019-03-13T18:15:31.205Z,1.10
2019-03-13T18:19:33.661Z,1.10
2019-03-13T18:23:35.631Z,1.20
2019-03-13T18:27:37.653Z,1.20
2019-03-13T18:31:39.594Z,1.07
2019-03-13T18:35:43.042Z,1.30
2019-03-13T18:39:44.947Z,1.40
2019-03-13T18:43:46.845Z,1.30
2019-03-13T18:47:48.741Z,1.20
2019-03-13T18:51:50.654Z,1.35
2019-03-13T18:55:52.575Z,1.30
2019-03-13T18:59:54.545Z,1.70
2019-03-13T19:03:56.424Z,1.40
2019-03-13T19:07:59.116Z,1.07
2019-03-13T19:12:01.595Z,2.23
2019-03-13T19:16:03.494Z,1.42
2019-03-13T19:20:11.842Z,1.70
2019-03-13T19:24:13.047Z,2.00
2019-03-13T19:28:14.943Z,2.60
2019-03-13T19:32:16.855Z,2.63
2019-03-13T19:36:18.777Z,1.70
2019-03-13T19:40:22.479Z,2.17
2019-03-13T19:44:24.542Z,1.80
2019-03-13T19:48:26.578Z,1.70
2019-03-13T19:52:28.589Z,1.53
2019-03-13T19:56:30.478Z,1.80
2019-03-13T20:00:34.079Z,2.10
2019-03-13T20:04:46.801Z,1.77
2019-03-13T20:08:39.648Z,1.30
2019-03-13T20:12:42.539Z,1.90
2019-03-13T20:16:46.607Z,1.90
2019-03-13T20:20:48.171Z,1.80
2019-03-13T20:24:50.068Z,1.70
2019-03-13T20:28:51.957Z,1.50
2019-03-13T20:32:53.948Z,1.30
2019-03-13T20:36:58.569Z,1.53
2019-03-13T20:40:59.590Z,1.43
2019-03-13T20:45:01.554Z,1.93
2019-03-13T20:49:04.629Z,1.60
2019-03-13T20:53:06.601Z,1.47
2019-03-13T20:57:08.502Z,1.83
2019-03-13T21:01:10.542Z,1.47
2019-03-13T21:05:12.602Z,1.50
2019-03-13T21:09:14.608Z,1.40
2019-03-13T21:13:16.677Z,1.50
2019-03-13T21:17:18.595Z,1.50
2019-03-13T21:21:20.539Z,1.73
2019-03-13T21:25:25.011Z,1.73
2019-03-13T21:29:26.909Z,1.53
2019-03-13T21:33:28.811Z,1.60
2019-03-13T21:37:30.785Z,2.00
2019-03-13T21:41:35.541Z,1.50
2019-03-13T21:45:41.412Z,1.57
2019-03-13T21:49:42.073Z,1.50
2019-03-13T21:53:43.954Z,2.00
2019-03-13T21:57:45.853Z,1.60
2019-03-13T22:01:47.878Z,1.73
2019-03-13T22:05:49.816Z,1.90
2019-03-13T22:09:51.719Z,1.70
2019-03-13T22:13:53.663Z,1.70
2019-03-13T22:17:56.383Z,1.80
2019-03-13T22:21:58.293Z,2.03
2019-03-13T22:26:00.175Z,1.77
2019-03-13T22:30:02.069Z,2.00
2019-03-13T22:34:04.128Z,1.80
2019-03-13T22:38:06.100Z,1.80
2019-03-13T22:42:08.007Z,1.80
2019-03-13T22:46:13.740Z,2.27
2019-03-13T22:50:21.259Z,2.10
2019-03-13T22:54:23.171Z,1.93
2019-03-13T22:58:25.196Z,2.30
2019-03-13T23:02:27.187Z,2.60
2019-03-13T23:06:29.075Z,2.63
2019-03-13T23:10:36.429Z,2.57
2019-03-13T23:14:38.320Z,2.62
2019-03-13T23:18:40.222Z,2.67
2019-03-13T23:22:42.149Z,2.57
2019-03-13T23:26:44.041Z,2.67
2019-03-13T23:30:45.957Z,2.50
2019-03-13T23:34:47.846Z,3.50
2019-03-13T23:38:49.736Z,3.57
2019-03-13T23:42:51.713Z,3.10
2019-03-13T23:46:53.614Z,3.07
2019-03-13T23:50:55.510Z,3.70
2019-03-13T23:54:57.418Z,5.50
2019-03-13T23:58:59.305Z,5.40
